sensor_id;sensor_type;location;lat;lon;timestamp;P1;durP1;ratioP1;P2;durP2;ratioP2
21665;SDS011;10994;45.486;9.190;2023-03-04T00:01:41;17.53;;;12.73;;
21665;SDS011;10994;45.486;9.190;2023-03-04T00:04:07;19.63;;;14.10;;
21665;SDS011;10994;45.486;9.190;2023-03-04T00:06:33;17.93;;;13.67;;
21665;SDS011;10994;45.486;9.190;2023-03-04T00:08:59;17.63;;;14.07;;
21665;SDS011;10994;45.486;9.190;2023-03-04T00:11:27;19.13;;;13.73;;
21665;SDS011;10994;45.486;9.190;2023-03-04T00:13:54;19.07;;;14.97;;
21665;SDS011;10994;45.486;9.190;2023-03-04T00:16:20;20.30;;;13.80;;
21665;SDS011;10994;45.486;9.190;2023-03-04T00:18:46;19.80;;;13.90;;
21665;SDS011;10994;45.486;9.190;2023-03-04T00:21:12;20.97;;;14.77;;
21665;SDS011;10994;45.486;9.190;2023-03-04T00:23:38;25.10;;;14.67;;
21665;SDS011;10994;45.486;9.190;2023-03-04T00:26:05;21.50;;;15.47;;
21665;SDS011;10994;45.486;9.190;2023-03-04T00:28:33;18.50;;;13.30;;
21665;SDS011;10994;45.486;9.190;2023-03-04T00:30:59;18.20;;;13.93;;
21665;SDS011;10994;45.486;9.190;2023-03-04T00:33:25;17.60;;;13.93;;
21665;SDS011;10994;45.486;9.190;2023-03-04T00:35:51;21.20;;;14.63;;
21665;SDS011;10994;45.486;9.190;2023-03-04T00:38:18;23.43;;;14.47;;
21665;SDS011;10994;45.486;9.190;2023-03-04T00:40:44;22.07;;;15.03;;
21665;SDS011;10994;45.486;9.190;2023-03-04T00:43:10;20.97;;;15.67;;
21665;SDS011;10994;45.486;9.190;2023-03-04T00:45:36;22.37;;;14.80;;
21665;SDS011;10994;45.486;9.190;2023-03-04T00:48:02;15.67;;;12.10;;
21665;SDS011;10994;45.486;9.190;2023-03-04T00:50:28;19.57;;;15.43;;
21665;SDS011;10994;45.486;9.190;2023-03-04T00:52:54;19.93;;;14.07;;
21665;SDS011;10994;45.486;9.190;2023-03-04T00:55:21;19.63;;;14.13;;
21665;SDS011;10994;45.486;9.190;2023-03-04T00:57:47;19.43;;;13.80;;
21665;SDS011;10994;45.486;9.190;2023-03-04T01:00:13;19.47;;;13.80;;
21665;SDS011;10994;45.486;9.190;2023-03-04T01:02:39;24.93;;;18.30;;
21665;SDS011;10994;45.486;9.190;2023-03-04T01:05:06;25.77;;;16.83;;
21665;SDS011;10994;45.486;9.190;2023-03-04T01:07:32;22.57;;;14.80;;
21665;SDS011;10994;45.486;9.190;2023-03-04T01:09:59;24.00;;;17.67;;
21665;SDS011;10994;45.486;9.190;2023-03-04T01:12:25;18.30;;;14.00;;
21665;SDS011;10994;45.486;9.190;2023-03-04T01:14:52;19.70;;;14.90;;
21665;SDS011;10994;45.486;9.190;2023-03-04T01:17:18;20.97;;;14.57;;
21665;SDS011;10994;45.486;9.190;2023-03-04T01:19:44;22.17;;;15.80;;
21665;SDS011;10994;45.486;9.190;2023-03-04T01:22:10;21.67;;;15.97;;
21665;SDS011;10994;45.486;9.190;2023-03-04T01:24:37;21.43;;;14.20;;
21665;SDS011;10994;45.486;9.190;2023-03-04T01:27:04;21.10;;;13.73;;
21665;SDS011;10994;45.486;9.190;2023-03-04T01:29:30;16.97;;;12.53;;
21665;SDS011;10994;45.486;9.190;2023-03-04T01:31:56;18.37;;;12.50;;
21665;SDS011;10994;45.486;9.190;2023-03-04T01:34:23;17.30;;;12.70;;
21665;SDS011;10994;45.486;9.190;2023-03-04T01:36:49;18.77;;;12.87;;
21665;SDS011;10994;45.486;9.190;2023-03-04T01:39:17;22.87;;;13.33;;
21665;SDS011;10994;45.486;9.190;2023-03-04T01:41:43;19.63;;;13.70;;
21665;SDS011;10994;45.486;9.190;2023-03-04T01:44:09;20.47;;;14.07;;
21665;SDS011;10994;45.486;9.190;2023-03-04T01:46:35;19.30;;;12.67;;
21665;SDS011;10994;45.486;9.190;2023-03-04T01:49:02;18.53;;;13.63;;
21665;SDS011;10994;45.486;9.190;2023-03-04T01:51:28;20.27;;;13.57;;
21665;SDS011;10994;45.486;9.190;2023-03-04T01:53:54;20.47;;;12.67;;
21665;SDS011;10994;45.486;9.190;2023-03-04T01:59:05;18.20;;;13.37;;
21665;SDS011;10994;45.486;9.190;2023-03-04T02:01:32;21.10;;;13.43;;
21665;SDS011;10994;45.486;9.190;2023-03-04T02:03:58;17.67;;;14.07;;
21665;SDS011;10994;45.486;9.190;2023-03-04T02:06:24;24.20;;;14.67;;
21665;SDS011;10994;45.486;9.190;2023-03-04T02:08:50;17.10;;;13.40;;
21665;SDS011;10994;45.486;9.190;2023-03-04T02:11:16;18.53;;;13.50;;
21665;SDS011;10994;45.486;9.190;2023-03-04T02:13:42;24.80;;;15.13;;
21665;SDS011;10994;45.486;9.190;2023-03-04T02:16:08;20.67;;;14.57;;
21665;SDS011;10994;45.486;9.190;2023-03-04T02:18:34;20.90;;;14.53;;
21665;SDS011;10994;45.486;9.190;2023-03-04T02:26:22;22.97;;;17.00;;
21665;SDS011;10994;45.486;9.190;2023-03-04T02:28:52;24.17;;;17.33;;
21665;SDS011;10994;45.486;9.190;2023-03-04T02:33:45;27.97;;;18.17;;
21665;SDS011;10994;45.486;9.190;2023-03-04T02:36:11;23.83;;;18.10;;
21665;SDS011;10994;45.486;9.190;2023-03-04T02:38:37;27.33;;;18.83;;
21665;SDS011;10994;45.486;9.190;2023-03-04T02:41:03;27.83;;;18.87;;
21665;SDS011;10994;45.486;9.190;2023-03-04T02:43:29;24.60;;;17.50;;
21665;SDS011;10994;45.486;9.190;2023-03-04T02:45:56;25.17;;;17.40;;
21665;SDS011;10994;45.486;9.190;2023-03-04T02:48:22;23.67;;;17.40;;
21665;SDS011;10994;45.486;9.190;2023-03-04T02:50:51;22.03;;;16.70;;
21665;SDS011;10994;45.486;9.190;2023-03-04T02:53:18;23.30;;;17.73;;
21665;SDS011;10994;45.486;9.190;2023-03-04T02:55:50;26.23;;;19.10;;
21665;SDS011;10994;45.486;9.190;2023-03-04T02:58:19;22.50;;;17.87;;
21665;SDS011;10994;45.486;9.190;2023-03-04T03:00:46;25.53;;;17.37;;
21665;SDS011;10994;45.486;9.190;2023-03-04T03:03:12;27.33;;;17.90;;
21665;SDS011;10994;45.486;9.190;2023-03-04T03:05:38;23.83;;;18.33;;
21665;SDS011;10994;45.486;9.190;2023-03-04T03:08:05;19.63;;;15.97;;
21665;SDS011;10994;45.486;9.190;2023-03-04T03:10:32;26.23;;;17.97;;
21665;SDS011;10994;45.486;9.190;2023-03-04T03:12:58;22.40;;;16.97;;
21665;SDS011;10994;45.486;9.190;2023-03-04T03:15:24;24.47;;;17.37;;
21665;SDS011;10994;45.486;9.190;2023-03-04T03:17:51;25.37;;;17.53;;
21665;SDS011;10994;45.486;9.190;2023-03-04T03:20:17;24.33;;;17.53;;
21665;SDS011;10994;45.486;9.190;2023-03-04T03:22:44;24.37;;;17.43;;
21665;SDS011;10994;45.486;9.190;2023-03-04T03:25:12;23.17;;;16.50;;
21665;SDS011;10994;45.486;9.190;2023-03-04T03:27:38;25.83;;;16.93;;
21665;SDS011;10994;45.486;9.190;2023-03-04T03:30:05;23.20;;;16.77;;
21665;SDS011;10994;45.486;9.190;2023-03-04T03:32:34;25.17;;;17.20;;
21665;SDS011;10994;45.486;9.190;2023-03-04T03:35:00;23.47;;;17.30;;
21665;SDS011;10994;45.486;9.190;2023-03-04T03:37:27;23.83;;;16.40;;
21665;SDS011;10994;45.486;9.190;2023-03-04T03:39:53;23.20;;;16.03;;
21665;SDS011;10994;45.486;9.190;2023-03-04T03:42:19;21.37;;;15.30;;
21665;SDS011;10994;45.486;9.190;2023-03-04T03:44:45;25.13;;;16.17;;
21665;SDS011;10994;45.486;9.190;2023-03-04T03:47:11;23.67;;;16.40;;
21665;SDS011;10994;45.486;9.190;2023-03-04T03:49:37;23.03;;;15.80;;
21665;SDS011;10994;45.486;9.190;2023-03-04T03:52:03;26.43;;;15.43;;
21665;SDS011;10994;45.486;9.190;2023-03-04T03:54:30;24.17;;;16.87;;
21665;SDS011;10994;45.486;9.190;2023-03-04T03:56:56;23.67;;;15.70;;
21665;SDS011;10994;45.486;9.190;2023-03-04T03:59:22;23.90;;;16.27;;
21665;SDS011;10994;45.486;9.190;2023-03-04T04:01:48;22.10;;;16.57;;
21665;SDS011;10994;45.486;9.190;2023-03-04T04:04:14;24.77;;;16.50;;
21665;SDS011;10994;45.486;9.190;2023-03-04T04:06:40;25.33;;;16.33;;
21665;SDS011;10994;45.486;9.190;2023-03-04T04:09:06;24.00;;;17.40;;
21665;SDS011;10994;45.486;9.190;2023-03-04T04:11:32;24.33;;;16.87;;
21665;SDS011;10994;45.486;9.190;2023-03-04T04:13:58;26.87;;;17.27;;
21665;SDS011;10994;45.486;9.190;2023-03-04T04:16:24;22.30;;;17.13;;
21665;SDS011;10994;45.486;9.190;2023-03-04T04:18:50;25.47;;;17.17;;
21665;SDS011;10994;45.486;9.190;2023-03-04T04:21:16;23.07;;;16.53;;
21665;SDS011;10994;45.486;9.190;2023-03-04T04:23:42;23.27;;;16.50;;
21665;SDS011;10994;45.486;9.190;2023-03-04T04:26:08;22.77;;;17.10;;
21665;SDS011;10994;45.486;9.190;2023-03-04T04:28:34;24.20;;;16.47;;
21665;SDS011;10994;45.486;9.190;2023-03-04T04:31:00;26.07;;;17.87;;
21665;SDS011;10994;45.486;9.190;2023-03-04T04:33:26;22.50;;;16.53;;
21665;SDS011;10994;45.486;9.190;2023-03-04T04:35:52;28.23;;;17.73;;
21665;SDS011;10994;45.486;9.190;2023-03-04T04:38:19;26.37;;;17.60;;
21665;SDS011;10994;45.486;9.190;2023-03-04T04:40:45;27.67;;;16.80;;
21665;SDS011;10994;45.486;9.190;2023-03-04T04:43:11;27.07;;;17.30;;
21665;SDS011;10994;45.486;9.190;2023-03-04T04:45:37;26.07;;;16.67;;
21665;SDS011;10994;45.486;9.190;2023-03-04T04:48:03;24.47;;;16.60;;
21665;SDS011;10994;45.486;9.190;2023-03-04T04:50:29;21.50;;;16.20;;
21665;SDS011;10994;45.486;9.190;2023-03-04T04:52:55;23.93;;;15.80;;
21665;SDS011;10994;45.486;9.190;2023-03-04T04:55:21;24.10;;;16.70;;
21665;SDS011;10994;45.486;9.190;2023-03-04T04:57:47;28.77;;;17.30;;
21665;SDS011;10994;45.486;9.190;2023-03-04T05:00:15;23.77;;;17.23;;
21665;SDS011;10994;45.486;9.190;2023-03-04T05:02:43;21.97;;;16.13;;
21665;SDS011;10994;45.486;9.190;2023-03-04T05:05:09;25.23;;;16.97;;
21665;SDS011;10994;45.486;9.190;2023-03-04T05:07:35;21.00;;;15.90;;
21665;SDS011;10994;45.486;9.190;2023-03-04T05:10:01;23.67;;;16.83;;
21665;SDS011;10994;45.486;9.190;2023-03-04T05:12:27;22.97;;;16.77;;
21665;SDS011;10994;45.486;9.190;2023-03-04T05:14:53;25.57;;;17.50;;
21665;SDS011;10994;45.486;9.190;2023-03-04T05:17:19;24.87;;;16.20;;
21665;SDS011;10994;45.486;9.190;2023-03-04T05:19:45;22.80;;;17.63;;
21665;SDS011;10994;45.486;9.190;2023-03-04T05:22:11;25.43;;;18.20;;
21665;SDS011;10994;45.486;9.190;2023-03-04T05:24:37;23.97;;;17.00;;
21665;SDS011;10994;45.486;9.190;2023-03-04T05:27:03;23.47;;;17.07;;
21665;SDS011;10994;45.486;9.190;2023-03-04T05:29:29;21.43;;;16.33;;
21665;SDS011;10994;45.486;9.190;2023-03-04T05:31:56;24.70;;;17.20;;
21665;SDS011;10994;45.486;9.190;2023-03-04T05:34:22;24.57;;;16.60;;
21665;SDS011;10994;45.486;9.190;2023-03-04T05:36:48;25.27;;;17.07;;
21665;SDS011;10994;45.486;9.190;2023-03-04T05:39:14;27.50;;;17.13;;
21665;SDS011;10994;45.486;9.190;2023-03-04T05:41:40;27.53;;;17.90;;
21665;SDS011;10994;45.486;9.190;2023-03-04T05:44:06;24.17;;;17.70;;
21665;SDS011;10994;45.486;9.190;2023-03-04T05:46:32;23.27;;;17.17;;
21665;SDS011;10994;45.486;9.190;2023-03-04T05:48:58;23.87;;;16.90;;
21665;SDS011;10994;45.486;9.190;2023-03-04T05:51:24;24.70;;;17.40;;
21665;SDS011;10994;45.486;9.190;2023-03-04T05:53:50;22.37;;;16.77;;
21665;SDS011;10994;45.486;9.190;2023-03-04T05:56:17;23.27;;;16.67;;
21665;SDS011;10994;45.486;9.190;2023-03-04T05:58:43;23.40;;;15.87;;
21665;SDS011;10994;45.486;9.190;2023-03-04T06:01:11;28.03;;;17.43;;
21665;SDS011;10994;45.486;9.190;2023-03-04T06:03:37;21.93;;;15.97;;
21665;SDS011;10994;45.486;9.190;2023-03-04T06:06:03;27.87;;;17.07;;
21665;SDS011;10994;45.486;9.190;2023-03-04T06:08:30;25.57;;;17.43;;
21665;SDS011;10994;45.486;9.190;2023-03-04T06:10:56;23.73;;;16.63;;
21665;SDS011;10994;45.486;9.190;2023-03-04T06:13:23;30.47;;;18.43;;
21665;SDS011;10994;45.486;9.190;2023-03-04T06:15:53;24.27;;;17.10;;
21665;SDS011;10994;45.486;9.190;2023-03-04T06:18:20;27.90;;;16.80;;
21665;SDS011;10994;45.486;9.190;2023-03-04T06:20:46;25.10;;;17.23;;
21665;SDS011;10994;45.486;9.190;2023-03-04T06:23:12;24.73;;;17.23;;
21665;SDS011;10994;45.486;9.190;2023-03-04T06:25:38;27.90;;;17.57;;
21665;SDS011;10994;45.486;9.190;2023-03-04T06:28:04;23.73;;;17.57;;
21665;SDS011;10994;45.486;9.190;2023-03-04T06:30:30;23.80;;;16.97;;
21665;SDS011;10994;45.486;9.190;2023-03-04T06:32:56;24.97;;;17.60;;
21665;SDS011;10994;45.486;9.190;2023-03-04T06:35:22;25.97;;;17.37;;
21665;SDS011;10994;45.486;9.190;2023-03-04T06:37:48;25.87;;;18.33;;
21665;SDS011;10994;45.486;9.190;2023-03-04T06:40:14;26.63;;;18.87;;
21665;SDS011;10994;45.486;9.190;2023-03-04T06:42:40;28.23;;;18.83;;
21665;SDS011;10994;45.486;9.190;2023-03-04T06:45:07;23.50;;;16.83;;
21665;SDS011;10994;45.486;9.190;2023-03-04T06:47:33;23.23;;;17.50;;
21665;SDS011;10994;45.486;9.190;2023-03-04T06:49:59;23.50;;;17.10;;
21665;SDS011;10994;45.486;9.190;2023-03-04T06:52:27;24.10;;;17.33;;
21665;SDS011;10994;45.486;9.190;2023-03-04T06:54:53;24.03;;;17.10;;
21665;SDS011;10994;45.486;9.190;2023-03-04T06:57:19;36.10;;;18.93;;
21665;SDS011;10994;45.486;9.190;2023-03-04T06:59:45;26.67;;;17.63;;
21665;SDS011;10994;45.486;9.190;2023-03-04T07:02:11;25.40;;;18.60;;
21665;SDS011;10994;45.486;9.190;2023-03-04T07:04:37;24.40;;;18.13;;
21665;SDS011;10994;45.486;9.190;2023-03-04T07:07:03;29.63;;;19.53;;
21665;SDS011;10994;45.486;9.190;2023-03-04T07:09:29;26.73;;;18.27;;
21665;SDS011;10994;45.486;9.190;2023-03-04T07:11:55;23.63;;;17.47;;
21665;SDS011;10994;45.486;9.190;2023-03-04T07:14:21;26.00;;;18.73;;
21665;SDS011;10994;45.486;9.190;2023-03-04T07:16:47;26.43;;;18.03;;
21665;SDS011;10994;45.486;9.190;2023-03-04T07:19:13;25.43;;;18.57;;
21665;SDS011;10994;45.486;9.190;2023-03-04T07:21:40;27.93;;;18.70;;
21665;SDS011;10994;45.486;9.190;2023-03-04T07:24:06;26.43;;;18.73;;
21665;SDS011;10994;45.486;9.190;2023-03-04T07:26:32;30.03;;;20.83;;
21665;SDS011;10994;45.486;9.190;2023-03-04T07:28:58;26.70;;;19.37;;
21665;SDS011;10994;45.486;9.190;2023-03-04T07:31:26;24.20;;;18.63;;
21665;SDS011;10994;45.486;9.190;2023-03-04T07:33:57;23.50;;;18.67;;
21665;SDS011;10994;45.486;9.190;2023-03-04T07:36:25;25.80;;;20.43;;
21665;SDS011;10994;45.486;9.190;2023-03-04T07:38:51;29.60;;;20.67;;
21665;SDS011;10994;45.486;9.190;2023-03-04T07:41:19;30.30;;;20.20;;
21665;SDS011;10994;45.486;9.190;2023-03-04T07:43:46;26.90;;;19.93;;
21665;SDS011;10994;45.486;9.190;2023-03-04T07:46:12;37.80;;;21.20;;
21665;SDS011;10994;45.486;9.190;2023-03-04T07:48:38;29.57;;;20.60;;
21665;SDS011;10994;45.486;9.190;2023-03-04T07:53:33;30.17;;;21.43;;
21665;SDS011;10994;45.486;9.190;2023-03-04T07:56:00;30.50;;;20.20;;
21665;SDS011;10994;45.486;9.190;2023-03-04T07:58:26;28.13;;;20.73;;
21665;SDS011;10994;45.486;9.190;2023-03-04T08:00:52;30.53;;;21.60;;
21665;SDS011;10994;45.486;9.190;2023-03-04T08:03:20;26.43;;;20.23;;
21665;SDS011;10994;45.486;9.190;2023-03-04T08:05:47;29.53;;;21.30;;
21665;SDS011;10994;45.486;9.190;2023-03-04T08:08:13;24.80;;;18.40;;
21665;SDS011;10994;45.486;9.190;2023-03-04T08:10:39;28.30;;;20.13;;
21665;SDS011;10994;45.486;9.190;2023-03-04T08:13:06;29.53;;;20.87;;
21665;SDS011;10994;45.486;9.190;2023-03-04T08:15:32;31.13;;;20.97;;
21665;SDS011;10994;45.486;9.190;2023-03-04T08:17:59;32.57;;;22.77;;
21665;SDS011;10994;45.486;9.190;2023-03-04T08:20:26;28.23;;;21.37;;
21665;SDS011;10994;45.486;9.190;2023-03-04T08:22:52;34.43;;;21.60;;
21665;SDS011;10994;45.486;9.190;2023-03-04T08:25:18;25.27;;;20.30;;
21665;SDS011;10994;45.486;9.190;2023-03-04T08:27:44;35.93;;;21.77;;
21665;SDS011;10994;45.486;9.190;2023-03-04T08:30:10;32.47;;;22.63;;
21665;SDS011;10994;45.486;9.190;2023-03-04T08:32:36;30.43;;;21.47;;
21665;SDS011;10994;45.486;9.190;2023-03-04T08:35:02;33.27;;;22.33;;
21665;SDS011;10994;45.486;9.190;2023-03-04T08:37:28;32.03;;;21.90;;
21665;SDS011;10994;45.486;9.190;2023-03-04T08:39:55;28.53;;;22.80;;
21665;SDS011;10994;45.486;9.190;2023-03-04T08:42:21;31.03;;;22.37;;
21665;SDS011;10994;45.486;9.190;2023-03-04T08:44:48;27.80;;;20.93;;
21665;SDS011;10994;45.486;9.190;2023-03-04T08:47:14;29.17;;;21.90;;
21665;SDS011;10994;45.486;9.190;2023-03-04T08:49:40;30.60;;;22.13;;
21665;SDS011;10994;45.486;9.190;2023-03-04T08:52:06;30.00;;;21.77;;
21665;SDS011;10994;45.486;9.190;2023-03-04T08:54:32;28.73;;;22.80;;
21665;SDS011;10994;45.486;9.190;2023-03-04T08:56:58;29.17;;;20.80;;
21665;SDS011;10994;45.486;9.190;2023-03-04T08:59:24;27.37;;;20.57;;
21665;SDS011;10994;45.486;9.190;2023-03-04T09:01:50;29.23;;;21.60;;
21665;SDS011;10994;45.486;9.190;2023-03-04T09:04:17;27.80;;;20.97;;
21665;SDS011;10994;45.486;9.190;2023-03-04T09:06:43;27.83;;;21.47;;
21665;SDS011;10994;45.486;9.190;2023-03-04T09:09:09;29.70;;;22.13;;
21665;SDS011;10994;45.486;9.190;2023-03-04T09:11:35;30.83;;;21.63;;
21665;SDS011;10994;45.486;9.190;2023-03-04T09:14:01;28.57;;;21.27;;
21665;SDS011;10994;45.486;9.190;2023-03-04T09:16:27;28.47;;;20.70;;
21665;SDS011;10994;45.486;9.190;2023-03-04T09:18:53;30.40;;;21.20;;
21665;SDS011;10994;45.486;9.190;2023-03-04T09:21:19;31.10;;;21.70;;
21665;SDS011;10994;45.486;9.190;2023-03-04T09:23:46;33.10;;;21.03;;
21665;SDS011;10994;45.486;9.190;2023-03-04T09:26:16;31.13;;;22.73;;
21665;SDS011;10994;45.486;9.190;2023-03-04T09:28:43;28.23;;;20.70;;
21665;SDS011;10994;45.486;9.190;2023-03-04T09:31:10;27.63;;;21.20;;
21665;SDS011;10994;45.486;9.190;2023-03-04T09:33:36;27.50;;;21.63;;
21665;SDS011;10994;45.486;9.190;2023-03-04T09:36:03;32.80;;;23.90;;
21665;SDS011;10994;45.486;9.190;2023-03-04T09:38:29;30.93;;;22.20;;
21665;SDS011;10994;45.486;9.190;2023-03-04T09:40:55;29.97;;;23.27;;
21665;SDS011;10994;45.486;9.190;2023-03-04T09:43:22;32.73;;;23.37;;
21665;SDS011;10994;45.486;9.190;2023-03-04T09:45:54;35.13;;;23.17;;
21665;SDS011;10994;45.486;9.190;2023-03-04T09:48:21;32.37;;;24.50;;
21665;SDS011;10994;45.486;9.190;2023-03-04T09:53:24;30.43;;;23.37;;
21665;SDS011;10994;45.486;9.190;2023-03-04T09:55:56;31.33;;;22.63;;
21665;SDS011;10994;45.486;9.190;2023-03-04T10:01:08;32.87;;;22.50;;
21665;SDS011;10994;45.486;9.190;2023-03-04T10:03:40;32.47;;;22.43;;
21665;SDS011;10994;45.486;9.190;2023-03-04T10:06:12;28.93;;;23.03;;
21665;SDS011;10994;45.486;9.190;2023-03-04T10:11:14;31.30;;;22.23;;
21665;SDS011;10994;45.486;9.190;2023-03-04T10:13:44;30.70;;;22.80;;
21665;SDS011;10994;45.486;9.190;2023-03-04T10:16:13;32.37;;;22.27;;
21665;SDS011;10994;45.486;9.190;2023-03-04T10:18:43;30.47;;;23.10;;
21665;SDS011;10994;45.486;9.190;2023-03-04T10:21:14;35.57;;;23.43;;
21665;SDS011;10994;45.486;9.190;2023-03-04T10:23:43;27.63;;;22.27;;
21665;SDS011;10994;45.486;9.190;2023-03-04T10:26:14;30.57;;;23.37;;
21665;SDS011;10994;45.486;9.190;2023-03-04T10:28:41;41.47;;;28.53;;
21665;SDS011;10994;45.486;9.190;2023-03-04T10:33:34;36.47;;;23.90;;
21665;SDS011;10994;45.486;9.190;2023-03-04T10:38:38;31.07;;;23.07;;
21665;SDS011;10994;45.486;9.190;2023-03-04T10:41:15;34.70;;;22.37;;
21665;SDS011;10994;45.486;9.190;2023-03-04T10:43:41;29.07;;;22.70;;
21665;SDS011;10994;45.486;9.190;2023-03-04T10:46:11;31.27;;;22.17;;
21665;SDS011;10994;45.486;9.190;2023-03-04T10:48:37;32.27;;;22.80;;
21665;SDS011;10994;45.486;9.190;2023-03-04T10:51:15;31.83;;;22.73;;
21665;SDS011;10994;45.486;9.190;2023-03-04T10:53:43;31.03;;;23.43;;
21665;SDS011;10994;45.486;9.190;2023-03-04T10:58:56;32.23;;;22.23;;
21665;SDS011;10994;45.486;9.190;2023-03-04T11:01:40;31.17;;;19.77;;
21665;SDS011;10994;45.486;9.190;2023-03-04T11:04:14;32.60;;;22.77;;
21665;SDS011;10994;45.486;9.190;2023-03-04T11:06:42;29.23;;;23.23;;
21665;SDS011;10994;45.486;9.190;2023-03-04T11:09:19;29.77;;;21.70;;
21665;SDS011;10994;45.486;9.190;2023-03-04T11:11:46;31.90;;;23.33;;
21665;SDS011;10994;45.486;9.190;2023-03-04T11:14:27;32.20;;;23.63;;
21665;SDS011;10994;45.486;9.190;2023-03-04T11:16:58;29.90;;;22.63;;
21665;SDS011;10994;45.486;9.190;2023-03-04T11:19:28;31.90;;;22.23;;
21665;SDS011;10994;45.486;9.190;2023-03-04T11:21:56;32.60;;;22.47;;
21665;SDS011;10994;45.486;9.190;2023-03-04T11:24:24;31.70;;;23.20;;
21665;SDS011;10994;45.486;9.190;2023-03-04T11:26:58;29.53;;;22.70;;
21665;SDS011;10994;45.486;9.190;2023-03-04T11:37:20;29.67;;;21.27;;
21665;SDS011;10994;45.486;9.190;2023-03-04T11:39:56;27.73;;;20.93;;
21665;SDS011;10994;45.486;9.190;2023-03-04T11:45:16;26.93;;;21.13;;
21665;SDS011;10994;45.486;9.190;2023-03-04T11:47:58;30.23;;;21.70;;
21665;SDS011;10994;45.486;9.190;2023-03-04T11:53:35;28.93;;;20.07;;
21665;SDS011;10994;45.486;9.190;2023-03-04T12:01:09;27.87;;;21.47;;
21665;SDS011;10994;45.486;9.190;2023-03-04T12:03:59;25.27;;;19.33;;
21665;SDS011;10994;45.486;9.190;2023-03-04T12:12:25;28.13;;;19.53;;
21665;SDS011;10994;45.486;9.190;2023-03-04T12:26:32;24.60;;;16.60;;
21665;SDS011;10994;45.486;9.190;2023-03-04T12:32:02;24.97;;;16.40;;
21665;SDS011;10994;45.486;9.190;2023-03-04T12:34:37;21.13;;;16.33;;
21665;SDS011;10994;45.486;9.190;2023-03-04T12:37:24;26.83;;;16.93;;
21665;SDS011;10994;45.486;9.190;2023-03-04T12:56:36;23.57;;;16.23;;
21665;SDS011;10994;45.486;9.190;2023-03-04T12:59:03;19.87;;;16.23;;
21665;SDS011;10994;45.486;9.190;2023-03-04T13:01:33;18.43;;;15.80;;
21665;SDS011;10994;45.486;9.190;2023-03-04T13:04:08;20.10;;;15.97;;
21665;SDS011;10994;45.486;9.190;2023-03-04T13:06:38;21.87;;;15.73;;
21665;SDS011;10994;45.486;9.190;2023-03-04T13:11:38;22.40;;;15.87;;
21665;SDS011;10994;45.486;9.190;2023-03-04T13:14:06;20.70;;;16.03;;
21665;SDS011;10994;45.486;9.190;2023-03-04T13:16:35;22.33;;;16.00;;
21665;SDS011;10994;45.486;9.190;2023-03-04T13:19:03;22.27;;;14.50;;
21665;SDS011;10994;45.486;9.190;2023-03-04T13:21:49;18.93;;;13.77;;
21665;SDS011;10994;45.486;9.190;2023-03-04T13:29:48;22.13;;;15.20;;
21665;SDS011;10994;45.486;9.190;2023-03-04T13:32:14;19.33;;;14.33;;
21665;SDS011;10994;45.486;9.190;2023-03-04T13:35:00;22.77;;;14.43;;
21665;SDS011;10994;45.486;9.190;2023-03-04T13:37:35;18.87;;;14.00;;
21665;SDS011;10994;45.486;9.190;2023-03-04T13:42:51;19.87;;;14.53;;
21665;SDS011;10994;45.486;9.190;2023-03-04T13:45:35;22.63;;;14.20;;
21665;SDS011;10994;45.486;9.190;2023-03-04T13:48:07;22.03;;;17.93;;
21665;SDS011;10994;45.486;9.190;2023-03-04T13:50:47;20.00;;;14.60;;
21665;SDS011;10994;45.486;9.190;2023-03-04T13:53:28;20.03;;;13.73;;
21665;SDS011;10994;45.486;9.190;2023-03-04T13:58:27;18.97;;;13.93;;
21665;SDS011;10994;45.486;9.190;2023-03-04T14:00:53;18.80;;;14.07;;
21665;SDS011;10994;45.486;9.190;2023-03-04T14:03:21;17.80;;;13.97;;
21665;SDS011;10994;45.486;9.190;2023-03-04T14:06:07;21.33;;;14.53;;
21665;SDS011;10994;45.486;9.190;2023-03-04T14:08:33;21.13;;;15.03;;
21665;SDS011;10994;45.486;9.190;2023-03-04T14:10:59;20.70;;;14.93;;
21665;SDS011;10994;45.486;9.190;2023-03-04T14:13:25;20.53;;;13.60;;
21665;SDS011;10994;45.486;9.190;2023-03-04T14:15:53;20.03;;;13.70;;
21665;SDS011;10994;45.486;9.190;2023-03-04T14:18:19;19.93;;;14.50;;
21665;SDS011;10994;45.486;9.190;2023-03-04T14:20:49;21.63;;;14.40;;
21665;SDS011;10994;45.486;9.190;2023-03-04T14:23:29;20.13;;;15.47;;
21665;SDS011;10994;45.486;9.190;2023-03-04T14:26:05;20.13;;;15.90;;
21665;SDS011;10994;45.486;9.190;2023-03-04T14:28:31;20.70;;;14.13;;
21665;SDS011;10994;45.486;9.190;2023-03-04T14:30:57;18.83;;;15.27;;
21665;SDS011;10994;45.486;9.190;2023-03-04T14:33:25;21.07;;;15.00;;
21665;SDS011;10994;45.486;9.190;2023-03-04T14:35:55;22.80;;;14.07;;
21665;SDS011;10994;45.486;9.190;2023-03-04T14:38:28;20.43;;;13.77;;
21665;SDS011;10994;45.486;9.190;2023-03-04T14:43:24;21.23;;;16.10;;
21665;SDS011;10994;45.486;9.190;2023-03-04T14:45:51;20.07;;;13.97;;
21665;SDS011;10994;45.486;9.190;2023-03-04T14:48:23;17.50;;;14.03;;
21665;SDS011;10994;45.486;9.190;2023-03-04T14:50:50;16.93;;;13.63;;
21665;SDS011;10994;45.486;9.190;2023-03-04T14:53:18;21.30;;;13.43;;
21665;SDS011;10994;45.486;9.190;2023-03-04T14:58:22;20.80;;;13.17;;
21665;SDS011;10994;45.486;9.190;2023-03-04T15:00:48;17.80;;;12.77;;
21665;SDS011;10994;45.486;9.190;2023-03-04T15:03:28;21.43;;;13.83;;
21665;SDS011;10994;45.486;9.190;2023-03-04T15:05:54;22.93;;;13.93;;
21665;SDS011;10994;45.486;9.190;2023-03-04T15:08:36;17.97;;;13.07;;
21665;SDS011;10994;45.486;9.190;2023-03-04T15:11:06;21.00;;;14.87;;
21665;SDS011;10994;45.486;9.190;2023-03-04T15:14:05;18.23;;;13.97;;
21665;SDS011;10994;45.486;9.190;2023-03-04T15:16:26;20.13;;;13.20;;
21665;SDS011;10994;45.486;9.190;2023-03-04T15:19:02;20.17;;;13.80;;
21665;SDS011;10994;45.486;9.190;2023-03-04T15:21:37;18.67;;;12.33;;
21665;SDS011;10994;45.486;9.190;2023-03-04T15:24:05;17.03;;;12.90;;
21665;SDS011;10994;45.486;9.190;2023-03-04T15:26:32;16.30;;;13.07;;
21665;SDS011;10994;45.486;9.190;2023-03-04T15:28:59;19.63;;;14.20;;
21665;SDS011;10994;45.486;9.190;2023-03-04T15:31:25;19.30;;;13.13;;
21665;SDS011;10994;45.486;9.190;2023-03-04T15:33:51;24.17;;;14.47;;
21665;SDS011;10994;45.486;9.190;2023-03-04T15:36:18;21.23;;;13.90;;
21665;SDS011;10994;45.486;9.190;2023-03-04T15:38:46;19.10;;;12.93;;
21665;SDS011;10994;45.486;9.190;2023-03-04T15:41:23;21.53;;;14.20;;
21665;SDS011;10994;45.486;9.190;2023-03-04T15:43:50;17.83;;;13.27;;
21665;SDS011;10994;45.486;9.190;2023-03-04T15:46:17;16.93;;;13.37;;
21665;SDS011;10994;45.486;9.190;2023-03-04T15:48:43;19.10;;;13.67;;
21665;SDS011;10994;45.486;9.190;2023-03-04T15:51:19;22.40;;;14.63;;
21665;SDS011;10994;45.486;9.190;2023-03-04T15:53:47;16.93;;;13.10;;
21665;SDS011;10994;45.486;9.190;2023-03-04T15:56:15;18.30;;;13.20;;
21665;SDS011;10994;45.486;9.190;2023-03-04T15:58:42;17.47;;;12.93;;
21665;SDS011;10994;45.486;9.190;2023-03-04T16:01:13;20.23;;;13.83;;
21665;SDS011;10994;45.486;9.190;2023-03-04T16:03:40;21.17;;;14.67;;
21665;SDS011;10994;45.486;9.190;2023-03-04T16:06:08;18.97;;;14.63;;
21665;SDS011;10994;45.486;9.190;2023-03-04T16:08:34;20.23;;;13.97;;